TFM - Tactical Decision Aid
ID: Runway Winds: CIG/VIS Threshold:

KCYS - Cheyenne Rgnl, WY, US

Updated at: 1136 UTC 23 Jun 2021
Latest TAF at: 0545 UTC 23 Jun 2021

TAF Board

Time1053Z 23/12Z 23/13Z 23/14Z 23/15Z 23/16Z 23/17Z 23/18Z 23/19Z 23/20Z 23/21Z 23/22Z 23/23Z 24/00Z>>
Type OBS PRVL PRVL PRVL PRVL PRVL PRVL PRVL PRVL PRVL PRVL PRVL PRVL PRVL
VIS 10 >6 >6 >6 >6 >6 >6 >6 >6 >6 >6 >6 >6 >6
CIG -- -- -- -- -- -- -- -- -- -- -- -- -- --
Cover CLR FEW FEW FEW FEW FEW FEW FEW FEW SCT SCT SCT SCT SCT
FltCat VFR VFR VFR VFR VFR VFR VFR VFR VFR VFR VFR VFR VFR VFR
WX -- -- -- -- -- -- -- -- -- VCSH VCSH VCSH VCSH VCSH
WDir 290 240 240 240 240 240 240 240 240 280 280 280 280 280
WSpd 7 6 6 6 6 6 6 6 6 12 12 12 12 12
WGst -- -- -- -- -- -- -- -- -- 22 22 22 22 22

TDA Impact Legend

  None Marginal Slight Moderate High
Visibility (sm) >5 3≤X≤5 2≤X<3 0.5≤X<2 <0.5
Ceiling (100 ft) >30 10≤X≤30 6≤X<10 2≤X<6 <2
Wind Speed (kt) <15 15≤X<25 25≤X<30 ≥30
Wind Gust (kt) <15 15≤X<25 25≤X<35 ≥35
Weather No Wx Reported VCTS -TS,-FZRA TS,FZRA +TS,+FZRA
TAF
KCYS 230545Z 2306/2406 24006KT P6SM FEW150
  FM231930 28012G22KT P6SM VCSH SCT100
  FM240200 30007KT P6SM SCT250


METAR
KCYS 231053Z AUTO 29007KT 10SM CLR 17/03 A2998 RMK AO2 SLP051 T01670033
KCYS 230953Z AUTO 27010KT 10SM CLR 16/04 A2997 RMK AO2 SLP050 T01560044
KCYS 230853Z AUTO 27009KT 10SM CLR 14/05 A2997 RMK AO2 SLP051 T01390050 56008

Radar Display
Forecast Discussion